createdAt,value
2017-05-28T00:00:02.819Z,11.00
2017-05-28T00:00:59.107Z,11.80
2017-05-28T00:01:57.353Z,11.80
2017-05-28T00:02:53.683Z,13.50
2017-05-28T00:03:54.141Z,12.30
2017-05-28T00:04:50.512Z,11.40
2017-05-28T00:05:47.584Z,11.90
2017-05-28T00:06:43.908Z,11.30
2017-05-28T00:07:41.067Z,11.90
2017-05-28T00:08:37.379Z,11.80
2017-05-28T00:09:34.520Z,11.70
2017-05-28T00:10:30.812Z,11.00
2017-05-28T00:11:27.121Z,12.40
2017-05-28T00:12:24.231Z,11.40
2017-05-28T00:13:20.519Z,11.10
2017-05-28T00:14:16.851Z,11.00
2017-05-28T00:15:13.157Z,15.20
2017-05-28T00:16:10.414Z,12.30
2017-05-28T00:17:06.692Z,11.60
2017-05-28T00:18:02.967Z,10.90
2017-05-28T00:18:59.255Z,11.20
2017-05-28T00:19:56.315Z,11.40
2017-05-28T00:20:52.600Z,11.60
2017-05-28T00:21:49.824Z,11.40
2017-05-28T00:22:46.143Z,11.00
2017-05-28T00:23:42.484Z,11.50
2017-05-28T00:24:38.798Z,11.70
2017-05-28T00:25:36.026Z,11.20
2017-05-28T00:26:32.331Z,11.00
2017-05-28T00:27:28.596Z,10.30
2017-05-28T00:28:24.899Z,12.40
2017-05-28T00:29:21.208Z,11.80
2017-05-28T00:30:17.506Z,12.20
2017-05-28T00:31:13.851Z,10.80
2017-05-28T00:32:10.112Z,10.80
2017-05-28T00:33:06.428Z,11.10
2017-05-28T00:34:03.724Z,10.50
2017-05-28T00:35:00.043Z,11.60
2017-05-28T00:36:02.126Z,11.10
2017-05-28T00:36:58.475Z,11.50
2017-05-28T00:37:54.875Z,12.00
2017-05-28T00:38:52.044Z,11.50
2017-05-28T00:39:49.159Z,10.40
2017-05-28T00:40:45.439Z,11.80
2017-05-28T00:41:41.963Z,11.40
2017-05-28T00:42:38.244Z,11.00
2017-05-28T00:43:34.527Z,11.50
2017-05-28T00:44:30.848Z,11.80
2017-05-28T00:45:27.475Z,11.30
2017-05-28T00:46:24.943Z,11.40
2017-05-28T00:47:25.781Z,11.20
2017-05-28T00:48:22.165Z,11.60
2017-05-28T00:49:18.484Z,11.10
2017-05-28T00:50:15.603Z,11.80
2017-05-28T00:51:11.895Z,12.60
2017-05-28T00:52:08.175Z,12.80
2017-05-28T00:53:04.496Z,12.70
2017-05-28T00:54:00.804Z,12.60
2017-05-28T00:54:57.100Z,12.20
2017-05-28T00:55:53.379Z,12.20
2017-05-28T00:56:50.559Z,12.20
2017-05-28T00:57:46.835Z,13.10
2017-05-28T00:58:43.183Z,11.80
2017-05-28T00:59:40.339Z,13.00
2017-05-28T01:00:36.611Z,11.90
2017-05-28T01:01:32.920Z,14.10
2017-05-28T01:02:29.199Z,12.70
2017-05-28T01:03:25.552Z,12.30
2017-05-28T01:04:21.897Z,12.50
2017-05-28T01:05:18.167Z,12.40
2017-05-28T01:06:14.463Z,12.70
2017-05-28T01:07:11.736Z,12.30
2017-05-28T01:08:08.079Z,11.90
2017-05-28T01:09:04.364Z,11.70
2017-05-28T01:10:01.621Z,13.10
2017-05-28T01:10:57.888Z,12.60
2017-05-28T01:11:54.210Z,11.20
2017-05-28T01:12:50.518Z,13.40
2017-05-28T01:13:47.770Z,13.00
2017-05-28T01:14:44.083Z,11.80
2017-05-28T01:15:40.371Z,11.70
2017-05-28T01:16:36.639Z,12.20
2017-05-28T01:17:33.208Z,12.70
2017-05-28T01:18:29.748Z,12.80
2017-05-28T01:19:27.068Z,11.70
2017-05-28T01:20:23.403Z,12.70
2017-05-28T01:21:20.651Z,12.80
2017-05-28T01:22:16.979Z,12.30
2017-05-28T01:23:13.252Z,11.40
2017-05-28T01:24:09.574Z,11.80
2017-05-28T01:25:05.917Z,12.00
2017-05-28T01:26:02.264Z,12.60
2017-05-28T01:26:59.388Z,12.40
2017-05-28T01:27:55.659Z,13.40
2017-05-28T01:28:52.017Z,11.70
2017-05-28T01:29:49.216Z,12.30
2017-05-28T01:30:46.747Z,13.00
2017-05-28T01:31:43.040Z,12.80
2017-05-28T01:32:39.348Z,11.70
2017-05-28T01:33:35.680Z,12.80
2017-05-28T01:34:32.144Z,12.00
2017-05-28T01:35:28.820Z,12.10
2017-05-28T01:36:25.115Z,12.50
2017-05-28T01:37:22.364Z,12.20
2017-05-28T01:38:19.491Z,11.50
2017-05-28T01:39:15.763Z,12.40
2017-05-28T01:40:12.060Z,11.70
2017-05-28T01:41:08.364Z,12.80
2017-05-28T01:42:04.679Z,12.50
2017-05-28T01:43:00.999Z,13.20
2017-05-28T01:43:57.312Z,12.30
2017-05-28T01:44:54.682Z,12.60
2017-05-28T01:45:50.972Z,12.00
2017-05-28T01:46:47.284Z,12.80
2017-05-28T01:47:44.552Z,12.30
2017-05-28T01:48:41.928Z,12.60
2017-05-28T01:49:39.272Z,11.60
2017-05-28T01:50:35.679Z,12.40
2017-05-28T01:51:32.010Z,13.30
2017-05-28T01:52:29.236Z,12.90
2017-05-28T01:53:25.563Z,12.20
2017-05-28T01:54:21.900Z,12.00
2017-05-28T01:55:18.263Z,11.40
2017-05-28T01:56:14.559Z,13.10
2017-05-28T01:57:10.900Z,10.80
2017-05-28T01:58:07.342Z,13.10
2017-05-28T01:59:03.655Z,13.20
2017-05-28T02:00:00.834Z,12.20
2017-05-28T02:00:57.218Z,11.60
2017-05-28T02:01:53.564Z,12.60
2017-05-28T02:02:49.916Z,12.10
2017-05-28T02:03:46.201Z,12.10
2017-05-28T02:04:42.646Z,12.60
2017-05-28T02:05:39.903Z,12.30
2017-05-28T02:06:36.204Z,11.80
2017-05-28T02:07:32.503Z,12.50
2017-05-28T02:08:29.645Z,11.30
2017-05-28T02:09:26.241Z,11.50
2017-05-28T02:10:22.728Z,12.30
2017-05-28T02:12:21.483Z,11.20
2017-05-28T02:13:18.799Z,11.40
2017-05-28T02:14:15.407Z,11.90
2017-05-28T02:15:11.707Z,12.80
2017-05-28T02:16:08.836Z,12.60
2017-05-28T02:17:05.172Z,12.60
2017-05-28T02:18:03.355Z,12.40
2017-05-28T02:18:59.675Z,11.60
2017-05-28T02:19:56.011Z,11.70
2017-05-28T02:20:52.311Z,12.50
2017-05-28T02:21:50.807Z,12.10
2017-05-28T02:22:47.143Z,13.00
2017-05-28T02:23:43.467Z,13.40
2017-05-28T02:24:42.711Z,12.50
2017-05-28T02:25:39.015Z,12.50
2017-05-28T02:26:35.324Z,13.40
2017-05-28T02:27:33.546Z,11.90
2017-05-28T02:31:51.883Z,12.20
2017-05-28T02:32:48.196Z,12.20
2017-05-28T02:33:45.748Z,12.60
2017-05-28T02:34:42.059Z,11.70
2017-05-28T02:35:38.339Z,13.40
2017-05-28T02:36:35.561Z,14.40
2017-05-28T02:37:32.047Z,12.60
2017-05-28T02:38:30.239Z,13.10
2017-05-28T02:39:26.584Z,14.30
2017-05-28T02:40:22.912Z,12.60
2017-05-28T02:41:20.140Z,12.30
2017-05-28T02:42:17.428Z,12.30
2017-05-28T02:43:13.795Z,12.10
2017-05-28T02:44:10.179Z,12.60
2017-05-28T02:45:06.469Z,12.70
2017-05-28T02:46:02.779Z,12.80
2017-05-28T02:46:59.191Z,12.30
2017-05-28T02:47:55.631Z,13.10
2017-05-28T02:48:51.941Z,13.40
2017-05-28T02:49:48.335Z,13.00
2017-05-28T02:50:44.902Z,13.40
2017-05-28T02:51:41.397Z,13.10
2017-05-28T02:52:37.835Z,14.80
2017-05-28T02:53:34.603Z,13.40
2017-05-28T02:54:30.927Z,12.70
2017-05-28T02:55:27.247Z,12.80
2017-05-28T02:56:23.635Z,12.80
2017-05-28T02:57:19.959Z,12.30
2017-05-28T02:58:16.271Z,11.90
2017-05-28T02:59:12.599Z,12.60
2017-05-28T03:00:09.731Z,13.30
2017-05-28T03:01:06.059Z,13.30
2017-05-28T03:02:02.363Z,12.80
2017-05-28T03:02:58.727Z,12.80
2017-05-28T03:03:55.063Z,13.40
2017-05-28T03:04:51.368Z,13.30
2017-05-28T03:05:47.727Z,12.40
2017-05-28T03:06:44.096Z,12.30
2017-05-28T03:07:40.415Z,13.00
2017-05-28T03:08:37.703Z,13.40
2017-05-28T03:09:34.868Z,13.20
2017-05-28T03:10:33.152Z,12.80
2017-05-28T03:11:29.423Z,13.10
2017-05-28T03:12:26.667Z,11.40
2017-05-28T03:13:22.982Z,12.90
2017-05-28T03:14:20.048Z,13.40
2017-05-28T03:15:16.348Z,12.90
2017-05-28T03:16:14.659Z,12.50
2017-05-28T03:17:10.966Z,12.90
2017-05-28T03:18:07.407Z,13.30
2017-05-28T03:19:04.471Z,13.80
2017-05-28T03:20:00.783Z,12.00
2017-05-28T03:20:57.104Z,12.40
2017-05-28T03:21:53.427Z,13.50
2017-05-28T03:22:49.762Z,13.40
2017-05-28T03:23:46.083Z,11.90
2017-05-28T03:24:42.391Z,12.80
2017-05-28T03:25:38.703Z,11.90
2017-05-28T03:26:34.991Z,11.10
2017-05-28T03:27:31.303Z,12.30
2017-05-28T03:28:27.643Z,13.20
2017-05-28T03:29:23.963Z,12.00
2017-05-28T03:30:20.307Z,12.70
2017-05-28T03:31:16.610Z,12.90
2017-05-28T03:32:13.123Z,13.50
2017-05-28T03:33:09.416Z,11.80
2017-05-28T03:34:05.695Z,12.50
2017-05-28T03:35:02.008Z,12.20
2017-05-28T03:35:59.267Z,11.70
2017-05-28T03:36:56.547Z,11.60
2017-05-28T03:37:52.883Z,12.60
2017-05-28T03:38:49.179Z,13.50
2017-05-28T03:39:46.391Z,12.60
2017-05-28T03:40:43.495Z,12.40
2017-05-28T03:41:39.820Z,12.00
2017-05-28T03:42:36.096Z,12.10
2017-05-28T03:43:33.424Z,11.80
2017-05-28T03:44:29.810Z,11.00
2017-05-28T03:45:26.099Z,11.40
2017-05-28T03:46:23.343Z,11.40
2017-05-28T03:47:19.640Z,11.10
2017-05-28T03:48:15.928Z,11.60
2017-05-28T03:49:15.112Z,12.50
2017-05-28T03:50:11.439Z,12.80
2017-05-28T03:51:07.722Z,11.80
2017-05-28T03:52:03.994Z,12.20
2017-05-28T03:53:00.304Z,12.30
2017-05-28T03:53:57.548Z,13.70
2017-05-28T03:54:53.852Z,13.50
2017-05-28T03:55:50.138Z,13.80
2017-05-28T03:56:46.483Z,12.80
2017-05-28T03:57:42.743Z,13.10
2017-05-28T03:58:39.031Z,13.70
2017-05-28T03:59:36.131Z,13.00
2017-05-28T04:00:33.399Z,12.80
2017-05-28T04:01:30.463Z,13.00
2017-05-28T04:02:26.731Z,12.80
2017-05-28T04:03:23.032Z,13.00
2017-05-28T04:04:19.320Z,12.30
2017-05-28T04:05:16.714Z,12.50
2017-05-28T04:06:12.988Z,12.50
2017-05-28T04:07:09.263Z,12.20
2017-05-28T04:08:05.571Z,12.50
2017-05-28T04:09:01.928Z,12.30
2017-05-28T04:09:58.219Z,12.40
2017-05-28T04:10:54.542Z,13.20
2017-05-28T04:11:50.872Z,12.60
2017-05-28T04:12:47.199Z,12.50
2017-05-28T04:13:43.482Z,13.70
2017-05-28T04:14:39.768Z,12.30
2017-05-28T04:15:36.084Z,12.60
2017-05-28T04:16:33.160Z,13.20
2017-05-28T04:17:30.339Z,13.80
2017-05-28T04:18:26.657Z,12.80
2017-05-28T04:19:22.935Z,13.00
2017-05-28T04:20:20.244Z,13.20
2017-05-28T04:21:16.536Z,12.80
2017-05-28T04:22:12.822Z,14.10
2017-05-28T04:23:09.129Z,13.60
2017-05-28T04:24:05.540Z,12.70
2017-05-28T04:25:01.863Z,12.60
2017-05-28T04:25:58.231Z,13.80
2017-05-28T04:26:54.579Z,12.20
2017-05-28T04:27:50.911Z,11.40
2017-05-28T04:28:47.249Z,12.00
2017-05-28T04:29:43.596Z,11.70
2017-05-28T04:30:39.948Z,12.60
2017-05-28T04:31:36.324Z,12.20
2017-05-28T04:32:33.459Z,11.60
2017-05-28T04:33:32.631Z,12.50
2017-05-28T04:34:28.975Z,12.00
2017-05-28T04:35:26.189Z,12.10
2017-05-28T04:36:24.516Z,12.40
2017-05-28T04:37:20.859Z,12.00
2017-05-28T04:38:17.131Z,12.00
2017-05-28T04:39:13.463Z,11.60
2017-05-28T04:40:09.983Z,12.10
2017-05-28T04:41:06.288Z,11.30
2017-05-28T04:42:02.563Z,11.40
2017-05-28T04:42:58.924Z,12.00
2017-05-28T04:43:55.188Z,11.20
2017-05-28T04:44:51.483Z,12.20
2017-05-28T04:45:47.775Z,12.60
2017-05-28T04:46:44.059Z,13.20
2017-05-28T04:47:40.346Z,12.20
2017-05-28T04:48:37.406Z,11.50
2017-05-28T04:49:33.711Z,11.70
2017-05-28T04:50:29.991Z,12.20
2017-05-28T04:51:26.296Z,12.70
2017-05-28T04:52:22.651Z,12.30
2017-05-28T04:53:18.959Z,12.60
2017-05-28T04:54:15.235Z,11.80
2017-05-28T04:55:11.547Z,13.40
2017-05-28T04:56:07.879Z,12.70
2017-05-28T04:57:04.164Z,11.70
2017-05-28T04:58:00.483Z,10.70
2017-05-28T04:58:56.767Z,11.80
2017-05-28T04:59:53.142Z,12.30
2017-05-28T05:00:50.335Z,12.70
2017-05-28T05:01:46.663Z,12.10
2017-05-28T05:02:42.936Z,11.50
2017-05-28T05:03:39.228Z,11.00
2017-05-28T05:04:35.540Z,11.70
2017-05-28T05:05:31.843Z,11.70
2017-05-28T05:06:28.172Z,12.80
2017-05-28T05:07:24.500Z,12.00
2017-05-28T05:08:20.927Z,12.10
2017-05-28T05:09:17.202Z,12.10
2017-05-28T05:10:13.487Z,12.30
2017-05-28T05:11:09.807Z,12.10
2017-05-28T05:12:06.119Z,13.60
2017-05-28T05:13:02.412Z,12.20
2017-05-28T05:13:58.731Z,11.60
2017-05-28T05:14:54.992Z,12.80
2017-05-28T05:15:51.315Z,11.30
2017-05-28T05:16:48.451Z,11.20
2017-05-28T05:17:44.726Z,12.20
2017-05-28T05:18:41.025Z,11.10
2017-05-28T05:19:37.323Z,10.40
2017-05-28T05:20:33.615Z,10.10
2017-05-28T05:21:30.923Z,10.80
2017-05-28T05:22:28.207Z,10.20
2017-05-28T05:23:24.527Z,11.70
2017-05-28T05:24:20.840Z,10.30
2017-05-28T05:25:18.107Z,11.10
2017-05-28T05:26:14.431Z,9.60
2017-05-28T05:27:10.699Z,10.40
2017-05-28T05:28:06.952Z,11.90
2017-05-28T05:29:03.235Z,11.40
2017-05-28T05:30:00.467Z,10.90
2017-05-28T05:30:56.743Z,10.00
2017-05-28T05:31:53.023Z,10.50
2017-05-28T05:32:49.299Z,11.30
2017-05-28T05:33:45.579Z,10.10
2017-05-28T05:34:41.823Z,10.40
2017-05-28T05:35:38.117Z,9.50
2017-05-28T05:36:35.283Z,10.70
2017-05-28T05:37:32.454Z,10.40
2017-05-28T05:38:28.720Z,10.30
2017-05-28T05:39:25.055Z,11.60
2017-05-28T05:40:21.386Z,10.50
2017-05-28T05:41:17.671Z,11.70
2017-05-28T05:44:32.164Z,10.10
2017-05-28T05:45:30.907Z,10.60
2017-05-28T05:46:27.179Z,10.60
2017-05-28T05:47:24.243Z,11.40
2017-05-28T05:48:20.516Z,10.50
2017-05-28T05:49:16.803Z,9.80
2017-05-28T05:50:13.123Z,10.60
2017-05-28T05:51:09.403Z,10.30
2017-05-28T05:52:05.664Z,9.80
2017-05-28T05:53:01.939Z,10.80
2017-05-28T05:53:59.251Z,9.60
2017-05-28T05:54:55.541Z,11.00
2017-05-28T05:55:52.660Z,9.90
2017-05-28T05:56:48.935Z,9.50
2017-05-28T05:57:50.460Z,9.90
2017-05-28T05:58:46.787Z,10.00
2017-05-28T05:59:43.107Z,9.70
2017-05-28T06:00:39.386Z,9.90
2017-05-28T06:01:35.655Z,10.60
2017-05-28T06:02:31.967Z,10.20
2017-05-28T06:03:28.235Z,9.30
2017-05-28T06:04:24.519Z,9.80
2017-05-28T06:05:20.783Z,10.10
2017-05-28T06:06:17.079Z,9.90
2017-05-28T06:07:13.352Z,10.10
2017-05-28T06:08:10.407Z,8.90
2017-05-28T06:09:06.695Z,10.30
2017-05-28T06:10:02.975Z,10.60
2017-05-28T06:10:59.231Z,9.60
2017-05-28T06:11:55.502Z,9.50
2017-05-28T06:12:51.851Z,9.10
2017-05-28T06:13:48.123Z,8.30
2017-05-28T06:14:44.419Z,9.30
2017-05-28T06:15:40.719Z,9.00
2017-05-28T06:16:36.995Z,8.30
2017-05-28T06:17:33.251Z,8.60
2017-05-28T06:18:29.567Z,8.60
2017-05-28T06:19:25.855Z,9.30
2017-05-28T06:20:22.186Z,8.30
2017-05-28T06:21:18.453Z,9.00
2017-05-28T06:22:14.735Z,9.20
2017-05-28T06:23:11.028Z,9.00
2017-05-28T06:24:07.304Z,9.40
2017-05-28T06:25:03.571Z,9.30
2017-05-28T06:25:59.842Z,8.80
2017-05-28T06:26:56.111Z,9.20
2017-05-28T06:27:52.380Z,9.50
2017-05-28T06:28:48.658Z,8.30
2017-05-28T06:29:44.922Z,8.90
2017-05-28T06:30:41.190Z,8.50
2017-05-28T06:31:37.511Z,8.60
2017-05-28T06:32:33.780Z,7.90
2017-05-28T06:33:30.053Z,9.20
2017-05-28T06:34:26.356Z,9.50
2017-05-28T06:35:22.621Z,8.70
2017-05-28T06:36:18.951Z,8.50
2017-05-28T06:37:15.222Z,9.00
2017-05-28T06:38:12.419Z,8.40
2017-05-28T06:39:08.704Z,9.10
2017-05-28T06:40:05.095Z,8.40
2017-05-28T06:41:01.355Z,8.10
2017-05-28T06:41:57.631Z,8.20
2017-05-28T06:42:53.932Z,8.50
2017-05-28T06:43:50.236Z,8.10
2017-05-28T06:44:46.503Z,8.50
2017-05-28T06:45:42.787Z,8.80
2017-05-28T06:46:39.061Z,8.30
2017-05-28T06:47:35.381Z,8.70
2017-05-28T06:48:31.636Z,9.20
2017-05-28T06:49:27.911Z,8.80
2017-05-28T06:50:24.211Z,9.00
2017-05-28T06:51:20.483Z,8.80
2017-05-28T06:52:16.755Z,8.20
2017-05-28T06:53:13.044Z,8.90
2017-05-28T06:54:10.315Z,7.50
2017-05-28T06:55:07.459Z,8.10
2017-05-28T06:56:03.755Z,8.90
2017-05-28T06:57:00.042Z,8.10
2017-05-28T06:57:56.431Z,7.60
2017-05-28T06:58:52.687Z,8.20
2017-05-28T06:59:49.022Z,7.40
2017-05-28T07:00:45.297Z,8.40
2017-05-28T07:01:41.571Z,8.10
2017-05-28T07:02:37.847Z,7.40
2017-05-28T07:03:34.122Z,8.20
2017-05-28T07:04:30.523Z,7.80
2017-05-28T07:05:26.782Z,7.90
2017-05-28T07:06:23.047Z,8.10
2017-05-28T07:07:19.327Z,8.50
2017-05-28T07:08:15.847Z,8.30
2017-05-28T07:09:12.116Z,8.40
2017-05-28T07:10:08.375Z,8.60
2017-05-28T07:11:04.639Z,8.20
2017-05-28T07:12:00.908Z,8.50
2017-05-28T07:12:57.171Z,8.10
2017-05-28T07:13:53.436Z,8.40
2017-05-28T07:14:49.716Z,7.40
2017-05-28T07:15:45.988Z,6.90
2017-05-28T07:16:42.267Z,8.30
2017-05-28T07:17:38.547Z,7.30
2017-05-28T07:18:34.812Z,7.40
2017-05-28T07:19:31.063Z,7.80
2017-05-28T07:20:27.331Z,7.80
2017-05-28T07:21:23.611Z,8.10
2017-05-28T07:22:19.892Z,7.90
2017-05-28T07:23:16.156Z,8.00
2017-05-28T07:24:12.432Z,7.40
2017-05-28T07:25:08.683Z,7.50
2017-05-28T07:26:04.940Z,8.10
2017-05-28T07:27:01.254Z,7.70
2017-05-28T07:27:57.610Z,8.40
2017-05-28T07:28:53.884Z,7.40
2017-05-28T07:29:50.140Z,8.80
2017-05-28T07:30:46.404Z,8.10
2017-05-28T07:31:42.800Z,7.50
2017-05-28T07:32:39.064Z,8.00
2017-05-28T07:33:35.334Z,8.50
2017-05-28T07:34:31.623Z,7.60
2017-05-28T07:35:27.895Z,7.60
2017-05-28T07:36:24.179Z,8.10
2017-05-28T07:37:20.430Z,8.00
2017-05-28T07:38:16.691Z,8.20
2017-05-28T07:39:12.995Z,8.50
2017-05-28T07:40:09.271Z,7.40
2017-05-28T07:41:05.547Z,7.30
2017-05-28T07:42:01.810Z,7.80
2017-05-28T07:42:58.070Z,7.60
2017-05-28T07:43:54.347Z,7.00
2017-05-28T07:44:50.627Z,7.50
2017-05-28T07:45:46.884Z,7.20
2017-05-28T07:46:43.220Z,7.80
2017-05-28T07:47:39.475Z,7.60
2017-05-28T07:48:35.747Z,7.00
2017-05-28T07:49:32.019Z,7.30
2017-05-28T07:50:28.316Z,8.30
2017-05-28T07:51:24.580Z,8.30
2017-05-28T07:52:20.910Z,7.40
2017-05-28T07:53:21.852Z,8.10
2017-05-28T07:54:18.127Z,8.20
2017-05-28T07:55:14.522Z,7.50
2017-05-28T07:56:10.787Z,6.60
2017-05-28T07:57:07.043Z,6.80
2017-05-28T07:58:03.473Z,7.50
2017-05-28T07:58:59.750Z,7.30
2017-05-28T07:59:56.023Z,8.40
2017-05-28T08:00:52.315Z,7.40
2017-05-28T08:01:48.594Z,7.80
2017-05-28T08:02:45.008Z,6.80
2017-05-28T08:03:41.295Z,7.30
2017-05-28T08:04:37.554Z,7.10
2017-05-28T08:05:33.831Z,6.60
2017-05-28T08:06:30.134Z,6.90
2017-05-28T08:07:26.403Z,7.20
2017-05-28T08:08:22.667Z,6.80
2017-05-28T08:09:19.063Z,7.90
2017-05-28T08:10:15.432Z,7.10
2017-05-28T08:11:11.727Z,7.30
2017-05-28T08:12:07.987Z,6.60
2017-05-28T08:13:05.165Z,6.70
2017-05-28T08:14:01.467Z,7.10
2017-05-28T08:14:57.755Z,6.90
2017-05-28T08:15:54.031Z,7.00
2017-05-28T08:16:50.301Z,7.20
2017-05-28T08:17:46.562Z,7.20
2017-05-28T08:18:42.828Z,7.10
2017-05-28T08:19:39.095Z,7.20
2017-05-28T08:20:35.375Z,7.60
2017-05-28T08:21:31.643Z,6.80
2017-05-28T08:22:27.917Z,6.40
2017-05-28T08:23:24.202Z,6.90
2017-05-28T08:24:20.471Z,6.80
2017-05-28T08:25:16.743Z,7.20
2017-05-28T08:26:13.037Z,6.50
2017-05-28T08:27:09.311Z,5.80
2017-05-28T08:28:05.603Z,7.10
2017-05-28T08:29:01.869Z,6.70
2017-05-28T08:29:58.140Z,5.90
2017-05-28T08:30:54.399Z,6.60
2017-05-28T08:31:50.664Z,6.80
2017-05-28T08:32:46.935Z,7.00
2017-05-28T08:33:43.235Z,7.10
2017-05-28T08:34:39.497Z,6.50
2017-05-28T08:35:35.755Z,7.10
2017-05-28T08:36:32.021Z,7.10
2017-05-28T08:37:28.304Z,7.30
2017-05-28T08:38:24.617Z,7.30
2017-05-28T08:39:20.886Z,6.80
2017-05-28T08:40:17.150Z,6.40
2017-05-28T08:41:13.400Z,6.60
2017-05-28T08:42:09.680Z,6.10
2017-05-28T08:43:05.951Z,6.60
2017-05-28T08:44:02.231Z,5.80
2017-05-28T08:44:58.495Z,6.20
2017-05-28T08:45:54.772Z,6.10
2017-05-28T08:46:51.034Z,6.50
2017-05-28T08:47:47.305Z,6.10
2017-05-28T08:48:43.563Z,6.00
2017-05-28T08:49:39.851Z,6.60
2017-05-28T08:50:36.107Z,5.90
2017-05-28T08:51:32.371Z,6.00
2017-05-28T08:52:28.635Z,5.80
2017-05-28T08:53:24.908Z,6.10
2017-05-28T08:54:21.183Z,6.90
2017-05-28T08:55:17.475Z,6.50
2017-05-28T08:56:13.723Z,6.10
2017-05-28T08:57:09.991Z,6.40
2017-05-28T08:58:06.251Z,6.20
2017-05-28T08:59:02.574Z,6.70
2017-05-28T08:59:58.844Z,6.70
2017-05-28T09:00:55.112Z,6.00
2017-05-28T09:01:51.383Z,5.70
2017-05-28T09:02:47.651Z,6.00
2017-05-28T09:03:43.926Z,5.70
2017-05-28T09:04:40.187Z,5.90
2017-05-28T09:05:36.446Z,5.40
2017-05-28T09:06:32.735Z,5.30
2017-05-28T09:07:29.025Z,4.70
2017-05-28T09:08:25.287Z,5.60
2017-05-28T09:09:21.549Z,5.80
2017-05-28T09:10:17.803Z,5.30
2017-05-28T09:11:14.115Z,5.30
2017-05-28T09:12:10.392Z,5.50
2017-05-28T09:13:06.655Z,5.60
2017-05-28T09:14:02.975Z,5.60
2017-05-28T09:14:59.279Z,5.20
2017-05-28T09:15:55.539Z,4.90
2017-05-28T09:16:51.843Z,6.00
2017-05-28T09:17:48.402Z,5.40
2017-05-28T09:18:44.679Z,5.20
2017-05-28T09:19:40.977Z,5.20
2017-05-28T09:20:37.283Z,5.40
2017-05-28T09:21:33.617Z,5.60
2017-05-28T09:22:29.891Z,5.20
2017-05-28T09:23:26.193Z,5.90
2017-05-28T09:24:22.488Z,5.10
2017-05-28T09:25:18.759Z,4.90
2017-05-28T09:26:15.081Z,5.00
2017-05-28T09:27:11.365Z,4.90
2017-05-28T09:28:07.679Z,5.20
2017-05-28T09:29:03.942Z,5.40
2017-05-28T09:30:00.230Z,4.90
2017-05-28T09:30:56.498Z,5.70
2017-05-28T09:31:52.799Z,5.00
2017-05-28T09:32:49.070Z,4.90
2017-05-28T09:33:45.352Z,5.10
2017-05-28T09:34:41.627Z,5.30
2017-05-28T09:35:37.895Z,5.70
2017-05-28T09:36:34.151Z,5.60
2017-05-28T09:37:30.426Z,5.70
2017-05-28T09:38:27.004Z,5.30
2017-05-28T09:39:23.935Z,5.50
2017-05-28T09:40:20.251Z,5.40
2017-05-28T09:41:16.657Z,4.70
2017-05-28T09:42:12.939Z,5.70
2017-05-28T09:43:09.232Z,5.80
2017-05-28T09:44:05.567Z,5.30
2017-05-28T09:45:01.843Z,5.60
2017-05-28T09:45:58.132Z,5.10
2017-05-28T09:46:54.391Z,5.60
2017-05-28T09:47:50.661Z,5.40
2017-05-28T09:48:46.946Z,6.00
2017-05-28T09:49:43.271Z,5.80
2017-05-28T09:50:39.543Z,5.80
2017-05-28T09:51:35.807Z,5.90
2017-05-28T09:52:32.079Z,5.50
2017-05-28T09:53:28.377Z,5.30
2017-05-28T09:54:24.639Z,5.50
2017-05-28T09:55:20.927Z,5.50
2017-05-28T09:56:17.200Z,5.80
2017-05-28T09:57:13.488Z,5.30
2017-05-28T09:58:09.777Z,5.30
2017-05-28T09:59:06.067Z,5.30
2017-05-28T10:00:02.318Z,5.00
2017-05-28T10:00:58.595Z,5.10
2017-05-28T10:01:54.909Z,5.30
2017-05-28T10:02:51.137Z,5.30
2017-05-28T10:03:47.420Z,5.40
2017-05-28T10:04:43.695Z,4.90
2017-05-28T10:05:39.998Z,5.70
2017-05-28T10:06:36.311Z,5.80
2017-05-28T10:07:32.575Z,5.40
2017-05-28T10:08:28.860Z,5.10
2017-05-28T10:09:25.152Z,5.30
2017-05-28T10:10:21.452Z,5.30
2017-05-28T10:11:17.756Z,5.50
2017-05-28T10:12:14.012Z,4.90
2017-05-28T10:13:10.273Z,5.90
2017-05-28T10:14:06.539Z,5.30
2017-05-28T10:15:02.799Z,4.80
2017-05-28T10:15:59.076Z,5.30
2017-05-28T10:16:55.394Z,4.80
2017-05-28T10:17:51.643Z,5.30
2017-05-28T10:18:47.902Z,4.90
2017-05-28T10:19:44.218Z,5.00
2017-05-28T10:20:40.591Z,4.90
2017-05-28T10:21:36.867Z,5.00
2017-05-28T10:22:33.163Z,5.00
2017-05-28T10:23:29.445Z,5.90
2017-05-28T10:24:25.734Z,4.80
2017-05-28T10:25:22.005Z,5.20
2017-05-28T10:26:18.271Z,5.90
2017-05-28T10:27:14.535Z,5.20
2017-05-28T10:28:10.858Z,4.90
2017-05-28T10:29:07.131Z,5.50
2017-05-28T10:30:03.401Z,4.70
2017-05-28T10:30:59.659Z,4.70
2017-05-28T10:31:55.927Z,5.10
2017-05-28T10:32:52.187Z,5.00
2017-05-28T10:33:48.484Z,4.80
2017-05-28T10:34:44.748Z,4.60
2017-05-28T10:35:41.002Z,4.20
2017-05-28T10:36:37.279Z,4.50
2017-05-28T10:37:33.547Z,4.40
2017-05-28T10:38:29.807Z,5.00
2017-05-28T10:39:26.067Z,4.30
2017-05-28T10:40:22.332Z,4.20
2017-05-28T10:41:18.627Z,4.80
2017-05-28T10:42:14.895Z,5.00
2017-05-28T10:43:11.143Z,4.60
2017-05-28T10:44:07.439Z,5.20
2017-05-28T10:45:03.696Z,4.70
2017-05-28T10:45:59.954Z,4.00
2017-05-28T10:46:56.206Z,4.30
2017-05-28T10:47:52.451Z,4.00
2017-05-28T10:48:48.711Z,4.10
2017-05-28T10:49:44.976Z,4.20
2017-05-28T10:50:41.235Z,4.80
2017-05-28T10:51:37.489Z,3.40
2017-05-28T10:52:33.769Z,3.70
2017-05-28T10:53:30.031Z,4.10
2017-05-28T10:54:26.304Z,3.40
2017-05-28T10:55:22.578Z,3.90
2017-05-28T10:56:18.839Z,4.50
2017-05-28T10:57:15.083Z,3.80
2017-05-28T10:58:11.351Z,4.20
2017-05-28T10:59:07.613Z,4.30
2017-05-28T11:00:03.897Z,4.20
2017-05-28T11:01:00.151Z,4.10
2017-05-28T11:01:56.411Z,4.10
2017-05-28T11:02:52.672Z,3.70
2017-05-28T11:03:48.930Z,4.10
2017-05-28T11:04:45.172Z,3.60
2017-05-28T11:05:41.447Z,4.40
2017-05-28T11:06:37.727Z,3.80
2017-05-28T11:07:33.999Z,4.00
2017-05-28T11:08:30.243Z,3.70
2017-05-28T11:09:26.522Z,3.80
2017-05-28T11:10:22.779Z,4.10
2017-05-28T11:11:19.064Z,3.50
2017-05-28T11:12:15.323Z,4.20
2017-05-28T11:13:11.587Z,4.30
2017-05-28T11:14:07.827Z,4.30
2017-05-28T11:15:04.087Z,4.20
2017-05-28T11:16:00.356Z,4.20
2017-05-28T11:16:56.627Z,3.90
2017-05-28T11:17:52.905Z,4.50
2017-05-28T11:18:49.155Z,4.60
2017-05-28T11:19:45.423Z,3.90
2017-05-28T11:20:42.388Z,5.00
2017-05-28T11:21:38.643Z,4.30
2017-05-28T11:22:40.633Z,3.90
2017-05-28T11:23:42.847Z,3.60
2017-05-28T11:24:39.131Z,3.80
2017-05-28T11:25:35.381Z,3.50
2017-05-28T11:26:31.643Z,3.70
2017-05-28T11:27:27.888Z,3.80
2017-05-28T11:28:24.149Z,3.70
2017-05-28T11:29:20.391Z,3.10
2017-05-28T11:30:16.643Z,3.50
2017-05-28T11:31:12.911Z,3.70
2017-05-28T11:32:09.163Z,3.70
2017-05-28T11:33:05.423Z,3.50
2017-05-28T11:34:01.704Z,3.60
2017-05-28T11:34:57.964Z,4.00
2017-05-28T11:35:54.227Z,2.90
2017-05-28T11:36:50.487Z,3.60
2017-05-28T11:37:46.735Z,3.40
2017-05-28T11:38:43.015Z,2.90
2017-05-28T11:39:39.254Z,3.20
2017-05-28T11:40:35.527Z,2.90
2017-05-28T11:41:31.838Z,3.50
2017-05-28T11:42:28.080Z,2.90
2017-05-28T11:43:24.339Z,3.60
2017-05-28T11:44:20.615Z,2.90
2017-05-28T11:45:16.863Z,3.20
2017-05-28T11:46:13.111Z,3.30
2017-05-28T11:47:09.371Z,3.20
2017-05-28T11:48:05.638Z,3.20
2017-05-28T11:49:01.882Z,3.60
2017-05-28T11:49:58.155Z,3.70
2017-05-28T11:50:54.534Z,3.80
2017-05-28T11:51:50.811Z,3.60
2017-05-28T11:52:47.063Z,3.80
2017-05-28T11:53:43.316Z,3.80
2017-05-28T11:54:39.572Z,3.80
2017-05-28T11:55:35.840Z,4.20
2017-05-28T11:56:32.091Z,3.80
2017-05-28T11:57:28.347Z,3.40
2017-05-28T11:58:24.607Z,4.20
2017-05-28T11:59:20.863Z,3.80
2017-05-28T12:00:17.131Z,3.50
2017-05-28T12:01:13.403Z,3.80
2017-05-28T12:02:09.646Z,4.30
2017-05-28T12:03:05.923Z,3.70
2017-05-28T12:04:02.190Z,4.40
2017-05-28T12:04:58.455Z,4.00
2017-05-28T12:05:54.722Z,3.50
2017-05-28T12:06:50.971Z,4.10
2017-05-28T12:07:47.215Z,4.50
2017-05-28T12:08:43.503Z,3.40
2017-05-28T12:09:39.759Z,3.70
2017-05-28T12:10:36.015Z,4.70
2017-05-28T12:11:32.287Z,3.50
2017-05-28T12:12:28.560Z,4.40
2017-05-28T12:13:24.803Z,3.50
2017-05-28T12:14:21.047Z,3.60
2017-05-28T12:15:17.320Z,4.00
2017-05-28T12:16:13.583Z,3.50
2017-05-28T12:17:09.871Z,3.40
2017-05-28T12:18:06.138Z,3.30
2017-05-28T12:19:02.398Z,3.30
2017-05-28T12:19:58.650Z,3.70
2017-05-28T12:20:54.904Z,3.60
2017-05-28T12:21:51.177Z,3.50
2017-05-28T12:22:47.447Z,3.60
2017-05-28T12:23:43.704Z,3.40
2017-05-28T12:24:39.980Z,3.90
2017-05-28T12:25:36.243Z,3.80
2017-05-28T12:26:32.491Z,3.40